Donald, Washington
Current Conditions -  °F | °C
As of 9:53 AM on Thursday 23 Oct 2014 (Local Time) from KYKM Reporting Station
Light Rain Light Rain  
Wind Chill: 51°   Ceiling: 9500
Heat Index: 51°   Visibility: 10mi
Dew Point: 47°   Wind: 7mph
Humidity: 86%   Direction: 320°NW
Pressure: 29.78"   Gusts: NA
Location:  46.4639°N, 120.412°W
Report Text: KYKM 231653Z 32006KT 10SM -RA FEW070 BKN095 11/08 A2978 RMK AO2 RAE1559B43 SLP085 P0000 T01060083
Loading
Personal Weather Stations






























Interactive Weather Map
Tropical Storm Tracking
New forecast layout! Learn more

10-Day Weather Forecast

Advertisements
Track Severe Weather on mobile